createdAt,value
2023-05-24T00:01:25.784Z,78.50
2023-05-24T00:03:54.375Z,78.30
2023-05-24T00:06:23.152Z,78.30
2023-05-24T00:08:52.727Z,78.30
2023-05-24T00:11:21.041Z,78.10
2023-05-24T00:13:51.029Z,78.50
2023-05-24T00:16:19.083Z,78.80
2023-05-24T00:18:47.942Z,78.50
2023-05-24T00:21:16.291Z,78.70
2023-05-24T00:23:44.618Z,78.80
2023-05-24T00:26:18.890Z,78.80
2023-05-24T00:28:47.644Z,78.80
2023-05-24T00:31:16.665Z,79.00
2023-05-24T00:33:44.920Z,79.00
2023-05-24T00:36:13.554Z,78.90
2023-05-24T00:38:43.495Z,79.10
2023-05-24T00:41:15.649Z,79.30
2023-05-24T00:43:47.028Z,79.00
2023-05-24T00:46:20.906Z,79.00
2023-05-24T00:48:52.234Z,79.30
2023-05-24T00:51:20.678Z,79.60
2023-05-24T00:53:50.776Z,79.80
2023-05-24T00:56:24.527Z,80.50
2023-05-24T00:58:56.156Z,80.50
2023-05-24T01:01:31.168Z,80.20
2023-05-24T01:04:02.760Z,81.00
2023-05-24T01:06:53.756Z,80.60
2023-05-24T01:09:30.433Z,80.60
2023-05-24T01:12:09.124Z,80.50
2023-05-24T01:14:44.752Z,80.90
2023-05-24T01:17:20.111Z,80.70
2023-05-24T01:20:00.141Z,80.00
2023-05-24T01:22:59.947Z,79.90
2023-05-24T01:25:46.723Z,79.90
2023-05-24T01:28:20.001Z,80.40
2023-05-24T01:30:50.051Z,80.00
2023-05-24T01:33:21.927Z,79.80
2023-05-24T01:35:52.662Z,80.20
2023-05-24T01:38:20.785Z,80.50
2023-05-24T01:40:53.960Z,80.20
2023-05-24T01:43:33.848Z,80.00
2023-05-24T01:46:09.922Z,80.30
2023-05-24T01:48:47.350Z,80.60
2023-05-24T01:51:22.945Z,80.60
2023-05-24T01:53:55.366Z,80.30
2023-05-24T01:56:30.170Z,80.80
2023-05-24T01:59:05.863Z,80.90
2023-05-24T02:01:38.567Z,80.90
2023-05-24T02:04:07.412Z,80.90
2023-05-24T02:06:36.003Z,80.70
2023-05-24T02:09:04.224Z,81.00
2023-05-24T02:11:35.065Z,80.70
2023-05-24T02:14:04.496Z,80.80
2023-05-24T02:16:42.706Z,80.70
2023-05-24T02:19:12.256Z,80.70
2023-05-24T02:21:41.231Z,80.90
2023-05-24T02:24:12.633Z,80.70
2023-05-24T02:26:40.800Z,80.90
2023-05-24T02:29:12.556Z,81.00
2023-05-24T02:31:40.894Z,80.90
2023-05-24T02:34:11.412Z,81.00
2023-05-24T02:36:39.458Z,81.20
2023-05-24T02:39:13.883Z,81.00
2023-05-24T02:41:42.202Z,81.30
2023-05-24T02:44:11.866Z,81.20
2023-05-24T02:46:40.326Z,81.40
2023-05-24T02:49:11.747Z,81.40
2023-05-24T02:51:39.916Z,81.30
2023-05-24T02:54:10.955Z,81.10
2023-05-24T02:56:41.021Z,81.30
2023-05-24T02:59:09.145Z,81.40
2023-05-24T03:01:40.746Z,81.50
2023-05-24T03:04:10.819Z,81.30
2023-05-24T03:06:39.143Z,81.90
2023-05-24T03:09:12.154Z,81.60
2023-05-24T03:11:43.238Z,81.60
2023-05-24T03:14:11.460Z,81.60
2023-05-24T03:16:44.348Z,81.60
2023-05-24T03:19:15.421Z,81.80
2023-05-24T03:21:45.921Z,81.80
2023-05-24T03:24:14.274Z,81.80
2023-05-24T03:26:42.501Z,81.90
2023-05-24T03:29:12.630Z,81.80
2023-05-24T03:31:45.126Z,81.80
2023-05-24T03:34:13.394Z,82.70
2023-05-24T03:36:45.427Z,81.70
2023-05-24T03:39:16.566Z,82.10
2023-05-24T03:41:47.640Z,82.00
2023-05-24T03:44:21.383Z,82.20
2023-05-24T03:46:50.912Z,82.30
2023-05-24T03:49:21.058Z,82.20
2023-05-24T03:51:51.876Z,82.30
2023-05-24T03:54:20.056Z,82.30
2023-05-24T03:56:48.222Z,82.50
2023-05-24T03:59:21.280Z,82.50
2023-05-24T04:01:50.966Z,82.50
2023-05-24T04:04:25.458Z,82.70
2023-05-24T04:06:53.980Z,82.60
2023-05-24T04:09:23.815Z,82.70
2023-05-24T04:11:52.975Z,82.70
2023-05-24T04:14:21.886Z,82.80
2023-05-24T04:16:57.583Z,82.80
2023-05-24T04:19:25.825Z,82.90
2023-05-24T04:21:56.806Z,83.00
2023-05-24T04:24:28.012Z,83.00
2023-05-24T04:26:58.290Z,83.00
2023-05-24T04:29:29.480Z,83.10
2023-05-24T04:32:00.893Z,83.20
2023-05-24T04:34:33.846Z,83.30
2023-05-24T04:37:05.294Z,83.30
2023-05-24T04:39:36.658Z,83.40
2023-05-24T04:42:08.535Z,83.30
2023-05-24T04:44:39.430Z,83.40
2023-05-24T04:47:09.819Z,83.30
2023-05-24T04:49:40.588Z,83.50
2023-05-24T04:52:09.312Z,83.40
2023-05-24T04:54:39.826Z,83.50
2023-05-24T04:57:11.217Z,83.40
2023-05-24T04:59:39.465Z,83.50
2023-05-24T05:02:15.669Z,83.50
2023-05-24T05:04:46.439Z,83.60
2023-05-24T05:07:17.416Z,83.50
2023-05-24T05:09:53.999Z,83.60
2023-05-24T05:12:24.670Z,83.70
2023-05-24T05:14:52.686Z,83.70
2023-05-24T05:17:27.170Z,83.90
2023-05-24T05:19:55.500Z,83.90
2023-05-24T05:22:23.643Z,84.10
2023-05-24T05:24:57.154Z,84.10
2023-05-24T05:27:27.753Z,84.20
2023-05-24T05:29:55.888Z,84.30
2023-05-24T05:32:27.859Z,84.60
2023-05-24T05:34:58.122Z,84.60
2023-05-24T05:37:29.969Z,84.60
2023-05-24T05:40:01.132Z,84.60
2023-05-24T05:42:33.859Z,84.70
2023-05-24T05:45:01.933Z,84.60
2023-05-24T05:47:33.814Z,84.80
2023-05-24T05:50:01.941Z,84.60
2023-05-24T05:52:36.144Z,84.80
2023-05-24T05:55:09.810Z,85.00
2023-05-24T05:57:37.988Z,85.10
2023-05-24T06:00:07.240Z,84.90
2023-05-24T06:02:41.811Z,85.80
2023-05-24T06:05:15.352Z,85.10
2023-05-24T06:07:50.025Z,85.30
2023-05-24T06:10:30.490Z,85.30
2023-05-24T06:13:10.435Z,85.10
2023-05-24T06:15:38.561Z,85.20
2023-05-24T06:18:08.536Z,85.10
2023-05-24T06:20:37.067Z,85.50
2023-05-24T06:23:08.597Z,85.50
2023-05-24T06:25:43.798Z,85.50
2023-05-24T06:28:15.363Z,85.50
2023-05-24T06:30:46.684Z,85.40
2023-05-24T06:33:25.344Z,85.40
2023-05-24T06:35:57.388Z,85.30
2023-05-24T06:38:25.705Z,85.50
2023-05-24T06:40:55.175Z,85.40
2023-05-24T06:43:26.000Z,85.50
2023-05-24T06:45:54.241Z,85.20
2023-05-24T06:48:30.838Z,85.30
2023-05-24T06:51:00.960Z,85.50
2023-05-24T06:53:31.842Z,85.40
2023-05-24T06:56:00.012Z,85.30
2023-05-24T06:58:28.229Z,85.30
2023-05-24T07:00:59.086Z,85.70
2023-05-24T07:03:31.132Z,85.50
2023-05-24T07:06:01.070Z,85.60
2023-05-24T07:08:38.669Z,85.50
2023-05-24T07:11:07.966Z,85.50
2023-05-24T07:13:36.202Z,85.50
2023-05-24T07:16:07.969Z,85.40
2023-05-24T07:18:36.306Z,85.50
2023-05-24T07:21:08.844Z,85.70
2023-05-24T07:23:39.530Z,85.50
2023-05-24T07:26:09.091Z,85.60
2023-05-24T07:28:37.982Z,85.70
2023-05-24T07:31:19.428Z,85.60
2023-05-24T07:33:47.723Z,85.40
2023-05-24T07:36:20.971Z,85.50
2023-05-24T07:38:51.984Z,85.30
2023-05-24T07:41:31.026Z,85.60
2023-05-24T07:44:03.995Z,86.20
2023-05-24T07:46:33.459Z,85.60
2023-05-24T07:49:01.685Z,85.50
2023-05-24T07:51:33.936Z,85.70
2023-05-24T07:54:02.308Z,85.50
2023-05-24T07:56:35.543Z,85.50
2023-05-24T07:59:04.868Z,85.30
2023-05-24T08:01:36.875Z,85.30
2023-05-24T08:04:05.495Z,85.30
2023-05-24T08:06:37.379Z,85.10
2023-05-24T08:09:08.912Z,85.10
2023-05-24T08:11:50.903Z,85.30
2023-05-24T08:14:25.556Z,85.30
2023-05-24T08:16:56.224Z,85.30
2023-05-24T08:19:24.544Z,85.20
2023-05-24T08:22:07.165Z,85.10
2023-05-24T08:24:37.776Z,84.90
2023-05-24T08:27:08.829Z,85.10
2023-05-24T08:29:38.386Z,85.10
2023-05-24T08:32:18.029Z,85.00
2023-05-24T08:34:46.298Z,84.90
2023-05-24T08:37:22.289Z,84.80
2023-05-24T08:39:53.085Z,84.70
2023-05-24T08:42:23.935Z,84.70
2023-05-24T08:44:54.589Z,84.90
2023-05-24T08:47:23.139Z,84.90
2023-05-24T08:49:55.091Z,85.00
2023-05-24T08:52:25.808Z,85.00
2023-05-24T08:54:56.971Z,85.00
2023-05-24T08:57:28.009Z,85.00
2023-05-24T08:59:59.276Z,84.80
2023-05-24T09:02:29.823Z,84.80
2023-05-24T09:05:01.741Z,84.80
2023-05-24T09:07:34.434Z,84.80
2023-05-24T09:10:12.253Z,84.70
2023-05-24T09:12:41.817Z,84.60
2023-05-24T09:15:16.711Z,84.60
2023-05-24T09:17:47.470Z,84.40
2023-05-24T09:20:18.923Z,84.40
2023-05-24T09:22:53.352Z,84.30
2023-05-24T09:25:31.802Z,84.20
2023-05-24T09:28:17.182Z,84.20
2023-05-24T09:31:07.826Z,84.20
2023-05-24T09:33:42.419Z,84.30
2023-05-24T09:36:13.393Z,84.10
2023-05-24T09:38:44.196Z,84.00
2023-05-24T09:41:12.993Z,84.00
2023-05-24T09:43:52.247Z,84.00
2023-05-24T09:46:28.316Z,84.00
2023-05-24T09:49:07.040Z,83.80
2023-05-24T09:51:45.943Z,83.90
2023-05-24T09:54:19.924Z,84.00
2023-05-24T09:56:51.088Z,84.00
2023-05-24T09:59:24.765Z,84.00
2023-05-24T10:02:24.859Z,84.00
2023-05-24T10:05:03.779Z,84.00
2023-05-24T10:07:34.161Z,84.00
2023-05-24T10:10:08.235Z,84.00
2023-05-24T10:12:47.996Z,84.10
2023-05-24T10:15:19.076Z,84.20
2023-05-24T10:17:47.319Z,84.00
2023-05-24T10:20:19.040Z,84.10
2023-05-24T10:22:48.608Z,84.00
2023-05-24T10:25:25.773Z,84.10
2023-05-24T10:27:56.573Z,84.20
2023-05-24T10:30:32.897Z,84.10
2023-05-24T10:33:05.746Z,84.10
2023-05-24T10:35:38.150Z,84.10
2023-05-24T10:38:17.098Z,84.20
2023-05-24T10:40:47.903Z,84.30
2023-05-24T10:43:19.577Z,84.30
2023-05-24T10:45:53.930Z,84.30
2023-05-24T10:48:59.646Z,84.50
2023-05-24T10:51:38.600Z,84.50
2023-05-24T10:54:19.386Z,84.70
2023-05-24T10:56:57.070Z,84.70
2023-05-24T10:59:32.798Z,84.50
2023-05-24T11:02:06.134Z,84.50
2023-05-24T11:04:39.783Z,84.70
2023-05-24T11:07:23.378Z,84.60
2023-05-24T11:10:00.279Z,84.70
2023-05-24T11:12:38.660Z,84.40
2023-05-24T11:15:28.113Z,84.40
2023-05-24T11:18:24.670Z,84.40
2023-05-24T11:21:00.625Z,84.30
2023-05-24T11:23:32.579Z,84.30
2023-05-24T11:26:05.311Z,84.30
2023-05-24T11:28:41.409Z,84.20
2023-05-24T11:31:25.911Z,84.30
2023-05-24T11:34:29.182Z,84.30
2023-05-24T11:37:06.360Z,84.30
2023-05-24T11:39:46.584Z,84.30
2023-05-24T11:42:32.288Z,84.40
2023-05-24T11:45:12.536Z,84.20
2023-05-24T11:48:15.293Z,84.20
2023-05-24T11:51:33.374Z,84.20
2023-05-24T11:54:36.482Z,84.00
2023-05-24T11:57:10.419Z,84.20
2023-05-24T11:59:46.418Z,84.30
2023-05-24T12:02:50.740Z,84.30
2023-05-24T12:05:52.756Z,84.30
2023-05-24T12:08:25.926Z,84.20
2023-05-24T12:11:10.256Z,84.00
2023-05-24T12:13:47.535Z,84.00
2023-05-24T12:17:04.678Z,84.10
2023-05-24T12:19:56.827Z,84.00
2023-05-24T12:22:33.404Z,84.30
2023-05-24T12:25:09.561Z,84.30
2023-05-24T12:27:50.617Z,84.20
2023-05-24T12:30:27.228Z,84.20
2023-05-24T12:33:02.149Z,85.00
2023-05-24T12:35:56.794Z,83.80
2023-05-24T12:39:06.003Z,84.00
2023-05-24T12:41:40.740Z,84.00
2023-05-24T12:44:25.007Z,83.90
2023-05-24T12:47:14.668Z,83.80
2023-05-24T12:50:02.961Z,83.80
2023-05-24T12:52:42.866Z,84.00
2023-05-24T12:55:33.520Z,83.80
2023-05-24T12:58:10.094Z,83.90
2023-05-24T13:00:45.110Z,83.80
2023-05-24T13:03:40.663Z,83.80
2023-05-24T13:06:44.637Z,83.80
2023-05-24T13:09:21.727Z,83.70
2023-05-24T13:12:02.163Z,83.90
2023-05-24T13:14:46.769Z,83.90
2023-05-24T13:17:24.606Z,84.00
2023-05-24T13:20:09.113Z,83.80
2023-05-24T13:22:56.359Z,83.90
2023-05-24T13:25:43.682Z,83.50
2023-05-24T13:28:24.001Z,83.50
2023-05-24T13:31:26.372Z,83.70
2023-05-24T13:34:03.262Z,83.60
2023-05-24T13:37:10.158Z,83.60
2023-05-24T13:39:51.243Z,83.50
2023-05-24T13:42:58.292Z,83.80
2023-05-24T13:45:49.097Z,83.60
2023-05-24T13:48:48.453Z,84.00
2023-05-24T13:51:29.984Z,83.90
2023-05-24T13:54:16.412Z,83.60
2023-05-24T13:56:58.631Z,83.60
2023-05-24T14:00:26.278Z,83.80
2023-05-24T14:02:54.353Z,83.40
2023-05-24T14:05:27.538Z,84.90
2023-05-24T14:07:57.345Z,85.60
2023-05-24T14:10:26.851Z,86.20
2023-05-24T14:13:12.732Z,87.00
2023-05-24T14:15:42.182Z,86.80
2023-05-24T14:18:10.270Z,87.30
2023-05-24T14:20:40.009Z,86.40
2023-05-24T14:23:08.586Z,86.60
2023-05-24T14:25:37.727Z,87.00
2023-05-24T14:28:06.330Z,87.00
2023-05-24T14:30:34.146Z,87.00
2023-05-24T14:33:02.382Z,87.20
2023-05-24T14:35:30.213Z,87.40
2023-05-24T14:37:57.986Z,87.00
2023-05-24T14:40:25.944Z,87.30
2023-05-24T14:42:55.306Z,87.30
2023-05-24T14:45:23.109Z,87.50
2023-05-24T14:47:50.917Z,87.10
2023-05-24T14:50:18.812Z,87.10
2023-05-24T14:52:46.592Z,87.70
2023-05-24T14:55:14.548Z,87.10
2023-05-24T14:57:42.706Z,86.40
2023-05-24T15:00:13.301Z,85.60
2023-05-24T15:04:13.014Z,85.40
2023-05-24T15:06:40.795Z,86.10
2023-05-24T15:09:08.571Z,86.70
2023-05-24T15:11:36.608Z,86.00
2023-05-24T15:14:04.458Z,85.50
2023-05-24T15:16:32.337Z,85.30
2023-05-24T15:19:00.118Z,86.10
2023-05-24T15:21:29.239Z,85.90
2023-05-24T15:23:57.019Z,85.90
2023-05-24T15:26:24.777Z,86.00
2023-05-24T15:28:52.558Z,85.80
2023-05-24T15:31:20.513Z,86.00
2023-05-24T15:33:48.435Z,86.00
2023-05-24T15:36:17.092Z,86.00
2023-05-24T15:38:46.273Z,85.90
2023-05-24T15:41:14.115Z,86.20
2023-05-24T15:43:41.882Z,86.90
2023-05-24T15:46:09.673Z,86.50
2023-05-24T15:48:37.625Z,87.10
2023-05-24T15:52:00.942Z,87.00
2023-05-24T15:53:56.488Z,87.10
2023-05-24T15:56:33.656Z,86.00
2023-05-24T15:59:01.452Z,85.40
2023-05-24T16:01:29.265Z,85.70
2023-05-24T16:03:57.103Z,85.30
2023-05-24T16:06:24.990Z,86.70
2023-05-24T16:08:52.814Z,86.00
2023-05-24T16:11:23.558Z,86.20
2023-05-24T16:13:53.392Z,85.70
2023-05-24T16:16:23.465Z,85.30
2023-05-24T16:19:07.412Z,85.10
2023-05-24T16:21:36.688Z,85.30
2023-05-24T16:24:05.290Z,85.10
2023-05-24T16:26:36.253Z,84.90
2023-05-24T16:29:04.346Z,84.80
2023-05-24T16:31:36.670Z,84.60
2023-05-24T16:34:08.938Z,84.60
2023-05-24T16:36:45.679Z,85.20
2023-05-24T16:39:17.432Z,84.40
2023-05-24T16:41:47.085Z,84.30
2023-05-24T16:44:18.126Z,84.20
2023-05-24T16:46:46.781Z,84.10
2023-05-24T16:49:19.641Z,84.10
2023-05-24T16:51:50.253Z,84.00
2023-05-24T16:54:18.377Z,84.00
2023-05-24T16:57:45.291Z,84.00
2023-05-24T17:00:20.538Z,83.90
2023-05-24T17:02:52.771Z,83.90
2023-05-24T17:05:23.857Z,83.90
2023-05-24T17:07:53.778Z,83.90
2023-05-24T17:10:21.988Z,83.90
2023-05-24T17:12:50.109Z,83.90
2023-05-24T17:15:27.236Z,83.90
2023-05-24T17:17:58.190Z,83.90
2023-05-24T17:20:28.819Z,83.90
2023-05-24T17:23:10.039Z,83.80
2023-05-24T17:25:39.319Z,83.70
2023-05-24T17:28:07.761Z,83.60
2023-05-24T17:30:37.970Z,83.50
2023-05-24T17:33:12.149Z,83.50
2023-05-24T17:35:41.748Z,83.50
2023-05-24T17:38:12.969Z,83.30
2023-05-24T17:40:45.223Z,83.20
2023-05-24T17:43:13.648Z,83.10
2023-05-24T17:45:45.116Z,83.00
2023-05-24T17:48:17.598Z,83.00
2023-05-24T17:50:47.598Z,82.90
2023-05-24T17:53:30.421Z,82.80
2023-05-24T17:56:01.317Z,82.80
2023-05-24T17:58:30.901Z,82.70
2023-05-24T18:01:17.438Z,82.70
2023-05-24T18:03:55.388Z,82.80
2023-05-24T18:06:27.294Z,82.80
2023-05-24T18:09:02.285Z,82.80
2023-05-24T18:11:30.320Z,82.80
2023-05-24T18:14:00.840Z,82.70
2023-05-24T18:16:32.578Z,82.70
2023-05-24T18:19:00.837Z,82.70
2023-05-24T18:21:28.969Z,82.70
2023-05-24T18:23:58.337Z,82.70
2023-05-24T18:26:31.740Z,82.70
2023-05-24T18:29:00.097Z,82.70
2023-05-24T18:31:30.491Z,82.70
2023-05-24T18:34:00.848Z,82.70
2023-05-24T18:36:33.007Z,82.70
2023-05-24T18:39:03.691Z,82.70
2023-05-24T18:41:32.170Z,82.70
2023-05-24T18:44:00.275Z,82.70
2023-05-24T18:46:29.877Z,82.70
2023-05-24T18:49:00.509Z,82.70
2023-05-24T18:51:29.458Z,82.70
2023-05-24T18:54:06.847Z,82.70
2023-05-24T18:56:38.359Z,82.80
2023-05-24T18:59:07.124Z,82.80
2023-05-24T19:01:37.729Z,82.80
2023-05-24T19:04:10.777Z,82.80
2023-05-24T19:06:39.403Z,82.80
2023-05-24T19:09:07.807Z,82.90
2023-05-24T19:11:38.058Z,83.00
2023-05-24T19:14:09.524Z,83.00
2023-05-24T19:16:56.106Z,83.00
2023-05-24T19:19:43.270Z,83.10
2023-05-24T19:22:28.214Z,83.20
2023-05-24T19:24:57.477Z,83.10
2023-05-24T19:27:28.961Z,83.30
2023-05-24T19:29:59.205Z,83.20
2023-05-24T19:32:30.781Z,83.30
2023-05-24T19:34:59.652Z,83.30
2023-05-24T19:37:27.977Z,83.40
2023-05-24T19:39:56.283Z,83.50
2023-05-24T19:42:24.849Z,83.50
2023-05-24T19:44:54.155Z,83.70
2023-05-24T19:47:52.785Z,83.60
2023-05-24T19:50:38.308Z,83.70
2023-05-24T19:53:39.849Z,83.80
2023-05-24T19:56:24.259Z,83.80
2023-05-24T19:59:14.071Z,83.70
2023-05-24T20:01:55.679Z,83.80
2023-05-24T20:04:28.397Z,83.90
2023-05-24T20:07:18.024Z,83.70
2023-05-24T20:09:46.806Z,84.10
2023-05-24T20:12:24.930Z,84.00
2023-05-24T20:14:53.068Z,83.90
2023-05-24T20:17:21.004Z,83.90
2023-05-24T20:19:53.286Z,84.00
2023-05-24T20:22:22.865Z,84.00
2023-05-24T20:24:51.229Z,84.10
2023-05-24T20:27:19.339Z,84.20
2023-05-24T20:29:47.797Z,84.30
2023-05-24T20:32:16.293Z,84.20
2023-05-24T20:34:44.251Z,84.20
2023-05-24T20:37:12.292Z,84.30
2023-05-24T20:39:41.668Z,84.30
2023-05-24T20:42:09.642Z,84.30
2023-05-24T20:44:37.643Z,84.30
2023-05-24T20:47:05.966Z,84.50
2023-05-24T20:49:36.713Z,84.40
2023-05-24T20:52:04.888Z,84.40
2023-05-24T20:54:32.836Z,84.40
2023-05-24T20:57:02.780Z,84.40
2023-05-24T20:59:31.053Z,84.60
2023-05-24T21:01:58.987Z,84.50
2023-05-24T21:04:27.209Z,84.50
2023-05-24T21:06:55.825Z,84.70
2023-05-24T21:09:23.900Z,84.70
2023-05-24T21:11:51.903Z,84.50
2023-05-24T21:14:21.316Z,84.70
2023-05-24T21:16:49.355Z,84.70
2023-05-24T21:19:17.403Z,84.80
2023-05-24T21:21:45.463Z,84.80
2023-05-24T21:24:14.690Z,84.90
2023-05-24T21:26:42.681Z,84.90
2023-05-24T21:29:11.883Z,84.90
2023-05-24T21:31:41.387Z,84.90
2023-05-24T21:34:09.849Z,85.00
2023-05-24T21:36:38.414Z,85.20
2023-05-24T21:39:08.118Z,85.00
2023-05-24T21:41:37.176Z,85.00
2023-05-24T21:44:07.257Z,85.00
2023-05-24T21:46:36.275Z,85.10
2023-05-24T21:49:05.675Z,85.20
2023-05-24T21:51:33.670Z,85.20
2023-05-24T21:54:01.791Z,85.30
2023-05-24T21:56:29.914Z,85.50
2023-05-24T21:58:58.027Z,85.70
2023-05-24T22:01:28.213Z,85.40
2023-05-24T22:03:56.434Z,85.60
2023-05-24T22:06:26.271Z,85.90
2023-05-24T22:08:55.406Z,85.80
2023-05-24T22:11:23.656Z,85.80
2023-05-24T22:13:52.027Z,85.70
2023-05-24T22:16:20.090Z,85.90
2023-05-24T22:18:48.756Z,86.10
2023-05-24T22:21:18.635Z,86.00
2023-05-24T22:23:48.056Z,86.10
2023-05-24T22:26:17.118Z,86.10
2023-05-24T22:28:55.044Z,86.40
2023-05-24T22:31:24.640Z,86.50
2023-05-24T22:33:52.620Z,86.40
2023-05-24T22:36:20.919Z,86.30
2023-05-24T22:38:50.375Z,86.40
2023-05-24T22:41:18.301Z,86.40
2023-05-24T22:43:46.211Z,86.60
2023-05-24T22:46:14.183Z,86.60
2023-05-24T22:48:42.199Z,86.40
2023-05-24T22:51:12.032Z,86.90
2023-05-24T22:53:40.010Z,86.80
2023-05-24T22:56:10.499Z,86.80
2023-05-24T22:58:39.087Z,86.60
2023-05-24T23:01:07.223Z,86.80
2023-05-24T23:03:35.262Z,86.60
2023-05-24T23:06:04.434Z,86.80
2023-05-24T23:08:32.961Z,86.70
2023-05-24T23:11:01.062Z,86.80
2023-05-24T23:13:33.078Z,86.80
2023-05-24T23:16:01.240Z,87.00
2023-05-24T23:18:29.269Z,86.80
2023-05-24T23:20:57.178Z,86.80
2023-05-24T23:23:25.768Z,86.80
2023-05-24T23:25:54.217Z,86.80
2023-05-24T23:28:22.403Z,86.80
2023-05-24T23:30:51.700Z,86.80
2023-05-24T23:33:19.675Z,87.00
2023-05-24T23:35:47.664Z,86.80
2023-05-24T23:38:15.852Z,86.80
2023-05-24T23:40:43.816Z,87.10
2023-05-24T23:43:11.722Z,86.90
2023-05-24T23:45:39.608Z,87.00
2023-05-24T23:48:09.027Z,87.00
2023-05-24T23:50:50.258Z,86.90
2023-05-24T23:53:21.193Z,86.90
2023-05-24T23:55:49.118Z,87.70
2023-05-24T23:58:17.103Z,86.90
